Pueblo Of Acoma, New Mexico
Current Conditions -  °F | °C
As of 2:35 AM on Thursday 18 Dec 2014 (Local Time) from KGNT Reporting Station
Clear Clear  
Wind Chill: -10°   Ceiling: Unl
Heat Index: -4°   Visibility: 10mi
Dew Point: -5°   Wind: 13mph
Humidity: 94%   Direction: 310°NW
Pressure: 30.12"   Gusts: NA
Location:  35.08°N, 107.6°W
Report Text: KGNT 180935Z AUTO 31011KT 10SM CLR M04/M05 A3012 RMK AO2 T10401048
Loading
Personal Weather Stations






























Interactive Weather Map New forecast layout! Learn more

10-Day Weather Forecast

Advertisements
Track Severe Weather on mobile